Time;durP1;ratioP1;P1;durP2;ratioP2;P2;SDS_P1;SDS_P2;PMS_P1;PMS_P2;Temp;Humidity;BMP_temperature;BMP_pressure;BME280_temperature;BME280_humidity;BME280_pressure;Samples;Min_cycle;Max_cycle;Signal;HPM_P1;HPM_P2
2021/03/21 00:01:40;;;;;;;11.35;6.32;;;28.50;72.00;;;;;;5103700;28;20024;-47
2021/03/21 00:04:07;;;;;;;9.50;6.00;;;28.40;71.70;;;;;;5104146;28;20098;-47
2021/03/21 00:06:34;;;;;;;10.25;5.38;;;28.40;71.70;;;;;;5085964;28;20024;-46
2021/03/21 00:09:01;;;;;;;7.90;5.55;;;28.40;71.70;;;;;;5103526;28;20339;-46
2021/03/21 00:11:27;;;;;;;9.30;5.57;;;28.30;71.40;;;;;;5103570;28;20073;-47
2021/03/21 00:13:54;;;;;;;10.18;5.45;;;28.30;71.60;;;;;;5106531;28;20282;-53
2021/03/21 00:16:22;;;;;;;9.38;5.50;;;28.30;71.40;;;;;;5107729;28;20024;-49
2021/03/21 00:18:49;;;;;;;10.80;5.60;;;28.30;71.30;;;;;;5107581;28;20455;-51
2021/03/21 00:21:29;;;;;;;11.43;5.47;;;28.30;71.50;;;;;;5107413;28;20028;-50
2021/03/21 00:23:59;;;;;;;14.30;5.80;;;28.30;71.50;;;;;;5075315;28;20032;-45
2021/03/21 00:26:26;;;;;;;12.57;6.13;;;28.20;71.30;;;;;;5071234;28;20052;-50
2021/03/21 00:28:52;;;;;;;13.38;5.68;;;28.20;70.90;;;;;;5107542;28;20083;-58
2021/03/21 00:31:20;;;;;;;11.35;6.18;;;28.10;71.10;;;;;;5106923;28;20024;-56
2021/03/21 00:33:46;;;;;;;8.52;5.45;;;28.10;70.90;;;;;;5107368;28;20012;-56
2021/03/21 00:36:15;;;;;;;12.50;6.22;;;28.10;71.00;;;;;;5107102;28;20243;-58
2021/03/21 00:38:50;;;;;;;10.15;5.80;;;28.10;70.80;;;;;;5107077;28;20020;-55
2021/03/21 00:41:22;;;;;;;8.95;5.65;;;28.10;70.70;;;;;;5106946;28;20024;-54
2021/03/21 00:43:50;;;;;;;9.57;6.13;;;28.10;70.60;;;;;;5107118;28;20024;-57
2021/03/21 00:46:26;;;;;;;11.60;5.55;;;28.00;70.40;;;;;;5107010;28;20292;-53
2021/03/21 00:48:53;;;;;;;9.05;5.97;;;28.00;70.20;;;;;;5107084;28;20020;-53
2021/03/21 00:51:21;;;;;;;9.88;6.32;;;28.00;70.10;;;;;;5106631;28;20061;-49
2021/03/21 00:53:47;;;;;;;8.93;5.95;;;28.00;70.30;;;;;;5106716;28;20020;-46
2021/03/21 00:56:43;;;;;;;8.55;5.90;;;28.00;69.90;;;;;;5106804;28;20019;-47
2021/03/21 00:59:12;;;;;;;13.13;6.18;;;28.00;70.00;;;;;;5089274;28;20044;-49
2021/03/21 01:01:39;;;;;;;10.30;6.45;;;27.90;69.90;;;;;;5089034;28;20212;-49
2021/03/21 01:04:06;;;;;;;15.13;7.07;;;27.90;69.90;;;;;;5106530;28;20378;-46
2021/03/21 01:06:35;;;;;;;11.73;8.13;;;27.90;70.00;;;;;;5106725;28;20074;-47
2021/03/21 01:09:20;;;;;;;15.48;8.02;;;27.90;69.80;;;;;;5088651;28;20020;-45
2021/03/21 01:11:48;;;;;;;12.07;8.10;;;27.90;69.70;;;;;;5106460;28;20220;-45
2021/03/21 01:14:18;;;;;;;13.05;8.25;;;27.80;69.10;;;;;;5106250;28;20020;-47
2021/03/21 01:16:45;;;;;;;12.65;7.28;;;27.80;69.40;;;;;;5106063;28;20020;-48
2021/03/21 01:19:18;;;;;;;10.82;6.38;;;27.70;69.50;;;;;;5105377;28;20044;-44
2021/03/21 01:21:48;;;;;;;10.55;6.18;;;27.70;69.20;;;;;;5088280;28;20032;-48
2021/03/21 01:24:20;;;;;;;10.85;6.95;;;27.70;68.90;;;;;;5071004;28;20027;-47
2021/03/21 01:26:48;;;;;;;;;;;27.60;69.10;;;;;;5106540;28;20027;-52
2021/03/21 01:29:17;;;;;;;11.15;6.45;;;27.60;69.20;;;;;;5106180;28;19912;-50
2021/03/21 01:31:47;;;;;;;9.48;5.93;;;27.60;69.60;;;;;;5106136;28;20038;-54
2021/03/21 01:34:15;;;;;;;9.10;5.93;;;27.60;69.70;;;;;;5106050;28;20078;-49
2021/03/21 01:36:42;;;;;;;11.18;5.70;;;27.50;69.60;;;;;;5088319;28;20040;-51
2021/03/21 01:39:19;;;;;;;10.38;5.43;;;27.50;69.70;;;;;;5088237;28;20028;-54
2021/03/21 01:41:58;;;;;;;9.48;4.97;;;27.40;69.60;;;;;;5087625;28;20024;-50
2021/03/21 01:44:27;;;;;;;9.98;5.68;;;27.40;69.70;;;;;;5106017;28;20028;-52
2021/03/21 01:47:11;;;;;;;12.02;6.13;;;27.40;69.70;;;;;;5087669;28;20326;-59
2021/03/21 01:49:44;;;;;;;9.23;6.35;;;27.40;70.10;;;;;;5105864;28;20024;-49
2021/03/21 01:52:28;;;;;;;8.05;6.05;;;27.40;69.90;;;;;;5087328;28;20130;-49
2021/03/21 01:54:55;;;;;;;10.25;6.25;;;27.50;69.70;;;;;;5087524;28;20077;-51
2021/03/21 01:57:25;;;;;;;11.02;6.28;;;27.60;69.90;;;;;;5105345;28;20039;-51
2021/03/21 01:59:52;;;;;;;8.73;5.53;;;27.60;69.50;;;;;;5105406;28;20059;-47
2021/03/21 02:02:19;;;;;;;11.15;5.60;;;27.60;69.50;;;;;;5105465;28;20015;-47
2021/03/21 02:04:47;;;;;;;8.85;5.28;;;27.70;69.10;;;;;;5104515;28;20224;-49
2021/03/21 02:07:30;;;;;;;8.55;5.93;;;27.70;69.00;;;;;;5105554;28;20024;-47
2021/03/21 02:10:26;;;;;;;7.50;5.50;;;27.70;68.70;;;;;;5105330;28;20028;-46
2021/03/21 02:13:31;;;;;;;9.63;5.75;;;27.70;68.80;;;;;;5105368;28;20028;-47
2021/03/21 02:16:09;;;;;;;11.70;5.40;;;27.70;68.60;;;;;;5067360;28;20039;-51
2021/03/21 02:18:48;;;;;;;10.25;5.53;;;27.70;68.60;;;;;;5086579;28;20038;-52
2021/03/21 02:21:32;;;;;;;9.30;5.78;;;27.70;68.60;;;;;;5104842;28;20248;-45
2021/03/21 02:24:33;;;;;;;9.23;5.70;;;27.70;68.80;;;;;;5104957;28;20095;-53
2021/03/21 02:27:30;;;;;;;10.60;5.53;;;27.70;68.80;;;;;;5100813;28;20028;-49
2021/03/21 02:30:02;;;;;;;7.78;5.25;;;27.70;68.80;;;;;;5053607;28;20046;-48
2021/03/21 02:32:55;;;;;;;10.95;5.35;;;27.70;68.80;;;;;;5104742;28;20158;-49
2021/03/21 02:35:44;;;;;;;10.90;5.45;;;27.70;68.70;;;;;;5104318;28;20038;-50
2021/03/21 02:38:26;;;;;;;9.93;5.90;;;27.70;68.90;;;;;;5104163;28;20103;-44
2021/03/21 02:41:03;;;;;;;11.98;6.03;;;27.60;68.80;;;;;;5104046;28;20032;-49
2021/03/21 02:43:52;;;;;;;11.43;6.30;;;27.60;68.90;;;;;;5103559;28;20047;-53
2021/03/21 02:46:22;;;;;;;14.00;6.28;;;27.70;69.30;;;;;;5104605;28;20226;-50
2021/03/21 02:48:56;;;;;;;12.43;6.28;;;27.60;68.80;;;;;;5104734;28;20028;-50
2021/03/21 02:51:35;;;;;;;11.13;6.07;;;27.60;69.00;;;;;;5104500;28;20028;-53
2021/03/21 02:54:22;;;;;;;11.57;6.57;;;27.60;69.30;;;;;;5104782;28;20099;-52
2021/03/21 02:56:56;;;;;;;14.30;6.03;;;27.60;69.30;;;;;;5104400;28;20323;-52
2021/03/21 02:59:34;;;;;;;15.85;6.72;;;27.60;69.50;;;;;;5070344;28;20140;-53
2021/03/21 03:02:30;;;;;;;11.98;6.30;;;27.50;69.60;;;;;;5104477;28;20044;-50
2021/03/21 03:05:17;;;;;;;14.05;6.07;;;27.50;69.30;;;;;;5104181;28;20190;-55
2021/03/21 03:08:03;;;;;;;11.15;5.78;;;27.50;69.50;;;;;;5100943;28;20240;-49
2021/03/21 03:10:44;;;;;;;14.10;6.30;;;27.50;69.70;;;;;;5101925;28;20028;-52
2021/03/21 03:13:20;;;;;;;12.13;7.65;;;27.40;69.40;;;;;;5104323;28;20024;-52
2021/03/21 03:15:48;;;;;;;15.90;11.15;;;27.50;69.50;;;;;;5104182;28;20216;-58
2021/03/21 03:18:24;;;;;;;11.02;7.70;;;27.40;69.40;;;;;;5104162;28;20327;-53
2021/03/21 03:20:57;;;;;;;13.43;7.57;;;27.40;69.60;;;;;;5103490;28;20044;-50
2021/03/21 03:23:32;;;;;;;9.65;6.55;;;27.40;69.50;;;;;;5103996;28;20090;-50
2021/03/21 03:26:05;;;;;;;8.70;5.57;;;27.40;69.60;;;;;;5103859;28;20224;-51
2021/03/21 03:28:55;;;;;;;10.02;6.03;;;27.40;69.60;;;;;;5104330;28;20360;-51
2021/03/21 03:31:31;;;;;;;11.23;6.05;;;27.40;69.60;;;;;;5103672;28;20023;-57
2021/03/21 03:34:00;;;;;;;12.70;6.40;;;27.40;69.50;;;;;;5104251;28;20020;-54
2021/03/21 03:36:32;;;;;;;9.15;6.65;;;27.40;69.50;;;;;;5086076;28;20079;-55
2021/03/21 03:38:59;;;;;;;10.93;6.57;;;27.40;69.20;;;;;;5083178;28;20035;-59
2021/03/21 03:41:52;;;;;;;10.95;6.53;;;27.30;69.20;;;;;;5103915;28;20317;-56
2021/03/21 03:44:31;;;;;;;;;;;27.30;69.20;;;;;;5104744;28;20091;-51
2021/03/21 03:47:22;;;;;;;10.73;6.05;;;27.40;69.30;;;;;;5103722;28;19906;-53
2021/03/21 03:50:13;;;;;;;12.25;6.75;;;27.30;69.30;;;;;;5108183;28;20028;-51
2021/03/21 03:53:14;;;;;;;12.27;6.20;;;27.30;69.40;;;;;;5108184;28;20116;-54
2021/03/21 03:55:51;;;;;;;12.77;6.13;;;27.30;69.20;;;;;;5092083;28;20325;-52
2021/03/21 03:58:36;;;;;;;7.60;6.05;;;27.30;69.20;;;;;;5108126;28;20089;-52
2021/03/21 04:01:13;;;;;;;10.45;6.05;;;27.30;69.00;;;;;;5107916;28;20079;-52
2021/03/21 04:03:49;;;;;;;11.00;5.78;;;27.30;69.20;;;;;;5108165;28;20023;-51
2021/03/21 04:06:54;;;;;;;9.73;5.90;;;27.30;69.20;;;;;;5107753;28;20059;-52
2021/03/21 04:09:35;;;;;;;9.85;6.22;;;27.20;69.20;;;;;;5107596;28;20024;-52
2021/03/21 04:12:12;;;;;;;9.63;5.90;;;27.30;69.30;;;;;;5107635;28;20100;-55
2021/03/21 04:14:59;;;;;;;7.05;6.32;;;27.20;69.00;;;;;;5108204;28;20028;-50
2021/03/21 04:17:44;;;;;;;10.65;5.82;;;27.20;69.30;;;;;;5107250;28;20016;-50
2021/03/21 04:20:36;;;;;;;10.38;6.25;;;27.20;69.30;;;;;;5107407;28;20039;-53
2021/03/21 04:23:31;;;;;;;11.30;6.68;;;27.20;69.40;;;;;;5107528;28;20030;-52
2021/03/21 04:26:12;;;;;;;8.90;6.05;;;27.20;69.30;;;;;;5107264;28;20053;-52
2021/03/21 04:28:55;;;;;;;12.32;6.25;;;27.20;69.30;;;;;;5107607;28;20087;-52
2021/03/21 04:31:21;;;;;;;9.18;5.65;;;27.20;69.50;;;;;;5107195;28;20020;-56
2021/03/21 04:33:52;;;;;;;10.25;5.97;;;27.20;69.50;;;;;;5107626;28;20092;-54
2021/03/21 04:36:32;;;;;;;9.88;6.28;;;27.20;69.60;;;;;;5107148;28;20075;-49
2021/03/21 04:39:04;;;;;;;9.88;6.20;;;27.20;69.70;;;;;;5107429;28;20043;-53
2021/03/21 04:41:42;;;;;;;8.05;6.28;;;27.20;69.50;;;;;;5107129;28;20075;-48
2021/03/21 04:44:24;;;;;;;11.02;6.18;;;27.10;69.60;;;;;;5107587;28;20316;-52
2021/03/21 04:47:18;;;;;;;9.43;6.78;;;27.10;69.40;;;;;;5106901;28;20062;-51
2021/03/21 04:49:45;;;;;;;8.68;6.35;;;27.10;69.70;;;;;;5107084;28;20066;-54
2021/03/21 04:52:37;;;;;;;8.95;6.38;;;27.10;69.80;;;;;;5106864;28;20061;-45
2021/03/21 04:55:09;;;;;;;9.07;7.72;;;27.10;69.80;;;;;;5106975;28;20247;-50
2021/03/21 04:58:02;;;;;;;12.88;8.50;;;27.00;69.80;;;;;;5106633;28;20024;-49
2021/03/21 05:00:35;;;;;;;9.70;7.65;;;27.00;70.00;;;;;;5096952;28;20055;-53
2021/03/21 05:03:22;;;;;;;11.98;7.60;;;27.00;69.80;;;;;;5106837;28;20043;-51
2021/03/21 05:06:01;;;;;;;14.05;7.25;;;27.00;70.00;;;;;;5106671;28;20016;-54
2021/03/21 05:08:44;;;;;;;9.60;6.90;;;27.00;70.00;;;;;;5106972;28;20028;-54
2021/03/21 05:11:11;;;;;;;10.18;8.30;;;27.00;69.90;;;;;;5106447;28;20040;-51
2021/03/21 05:13:41;;;;;;;10.30;8.00;;;26.90;70.00;;;;;;5106880;28;20030;-49
2021/03/21 05:16:16;;;;;;;12.07;7.68;;;27.00;69.70;;;;;;5106578;28;20031;-48
2021/03/21 05:18:55;;;;;;;10.70;7.32;;;26.90;69.90;;;;;;5106446;28;20047;-48
2021/03/21 05:21:48;;;;;;;9.48;6.95;;;26.90;70.00;;;;;;5106176;28;20031;-51
2021/03/21 05:24:40;;;;;;;12.32;7.63;;;26.90;70.10;;;;;;5103318;28;20265;-47
2021/03/21 05:27:17;;;;;;;9.95;7.18;;;26.90;70.10;;;;;;5106103;28;20058;-51
2021/03/21 05:29:59;;;;;;;12.90;6.43;;;26.90;70.30;;;;;;5106667;28;20032;-49
2021/03/21 05:32:27;;;;;;;9.65;6.47;;;26.80;69.90;;;;;;5105979;28;20012;-47
2021/03/21 05:34:57;;;;;;;12.20;6.57;;;26.90;70.30;;;;;;5106117;28;20035;-50
2021/03/21 05:37:48;;;;;;;12.70;7.70;;;26.80;70.90;;;;;;5117964;28;20068;-51
2021/03/21 05:40:48;;;;;;;12.95;11.65;;;26.80;70.70;;;;;;5126382;28;20315;-47
2021/03/21 05:43:56;;;;;;;11.48;8.48;;;26.80;70.60;;;;;;5126418;28;20102;-49
2021/03/21 05:46:47;;;;;;;11.93;7.50;;;26.80;70.60;;;;;;5126508;28;20319;-45
2021/03/21 05:49:58;;;;;;;10.63;6.93;;;26.80;70.70;;;;;;5126467;28;20031;-47
2021/03/21 05:52:36;;;;;;;9.05;6.70;;;26.80;70.90;;;;;;5070308;28;20095;-52
2021/03/21 05:55:12;;;;;;;8.95;6.50;;;26.70;71.20;;;;;;5126245;28;20250;-45
2021/03/21 05:58:03;;;;;;;11.30;6.82;;;26.70;70.70;;;;;;5126081;28;20035;-46
2021/03/21 06:00:54;;;;;;;10.15;6.30;;;26.70;70.60;;;;;;5126080;28;20093;-45
2021/03/21 06:03:39;;;;;;;7.80;6.05;;;26.70;70.40;;;;;;5126223;28;20023;-47
2021/03/21 06:06:30;;;;;;;10.10;6.38;;;26.70;70.40;;;;;;5125832;28;20053;-46
2021/03/21 06:09:40;;;;;;;8.68;5.72;;;26.70;70.30;;;;;;5126184;28;20353;-50
2021/03/21 06:12:12;;;;;;;10.18;6.20;;;26.70;70.40;;;;;;5125673;28;20038;-50
2021/03/21 06:15:26;;;;;;;13.00;6.30;;;26.70;70.20;;;;;;5126321;28;20012;-45
2021/03/21 06:18:18;;;;;;;11.23;6.35;;;26.70;70.10;;;;;;5087844;28;20095;-49
2021/03/21 06:21:12;;;;;;;6.30;5.68;;;26.70;70.20;;;;;;5125202;28;20040;-51
2021/03/21 06:24:12;;;;;;;6.78;6.18;;;26.70;69.70;;;;;;5125942;28;20030;-50
2021/03/21 06:26:39;;;;;;;7.38;6.47;;;26.70;70.00;;;;;;5125560;28;20011;-49
2021/03/21 06:29:42;;;;;;;12.05;5.90;;;26.70;70.00;;;;;;5125573;28;20087;-49
2021/03/21 06:32:34;;;;;;;8.10;6.15;;;26.70;69.70;;;;;;5125206;28;20015;-50
2021/03/21 06:35:22;;;;;;;8.63;6.00;;;26.60;69.70;;;;;;5125329;28;20250;-55
2021/03/21 06:38:07;;;;;;;7.88;6.10;;;26.60;70.00;;;;;;5107276;28;20023;-51
2021/03/21 06:40:52;;;;;;;8.98;5.88;;;26.60;69.80;;;;;;5125051;28;20029;-50
2021/03/21 06:43:31;;;;;;;10.07;6.15;;;26.60;70.00;;;;;;5125470;28;20031;-53
2021/03/21 06:46:16;;;;;;;10.45;6.05;;;26.60;70.20;;;;;;5125137;28;20015;-46
2021/03/21 06:49:12;;;;;;;11.65;6.03;;;26.60;70.30;;;;;;5125412;28;20024;-45
2021/03/21 06:52:01;;;;;;;10.23;6.05;;;26.60;70.30;;;;;;5125217;28;20027;-46
2021/03/21 06:54:29;;;;;;;7.18;5.43;;;26.60;70.10;;;;;;5125328;28;20072;-50
2021/03/21 06:57:20;;;;;;;8.07;5.90;;;26.60;70.20;;;;;;5124953;28;20033;-50
2021/03/21 07:00:15;;;;;;;6.00;5.30;;;26.60;70.00;;;;;;5124777;28;20480;-46
2021/03/21 07:03:18;;;;;;;8.20;5.90;;;26.60;70.00;;;;;;5106646;28;20030;-45
2021/03/21 07:06:26;;;;;;;7.57;5.85;;;26.60;70.00;;;;;;5106766;28;20016;-51
2021/03/21 07:09:11;;;;;;;10.05;5.43;;;26.60;70.00;;;;;;5091106;28;20028;-49
2021/03/21 07:12:25;;;;;;;7.72;5.88;;;26.60;70.00;;;;;;5125001;28;20038;-48
2021/03/21 07:15:16;;;;;;;6.93;5.40;;;26.60;70.10;;;;;;5022763;28;20029;-47
2021/03/21 07:18:19;;;;;;;6.50;5.50;;;26.60;70.00;;;;;;5124690;28;20091;-48
2021/03/21 07:20:55;;;;;;;11.23;5.90;;;26.70;70.10;;;;;;5124364;28;20107;-46
2021/03/21 07:23:59;;;;;;;7.90;5.32;;;26.60;69.90;;;;;;5124219;28;20028;-46
2021/03/21 07:26:48;;;;;;;9.05;5.82;;;26.70;70.00;;;;;;5124465;28;20011;-54
2021/03/21 07:29:35;;;;;;;6.22;5.45;;;26.70;70.10;;;;;;5124683;28;20020;-46
2021/03/21 07:32:32;;;;;;;8.93;6.13;;;26.70;70.20;;;;;;5073748;28;20042;-47
2021/03/21 07:35:27;;;;;;;9.35;5.60;;;26.60;70.20;;;;;;5124425;28;20069;-45
2021/03/21 07:38:16;;;;;;;8.52;5.72;;;26.60;70.20;;;;;;5122267;28;20035;-46
2021/03/21 07:40:50;;;;;;;11.00;5.30;;;26.60;70.40;;;;;;5124126;28;20095;-53
2021/03/21 07:43:24;;;;;;;8.15;5.68;;;26.60;70.20;;;;;;5124449;28;20054;-53
2021/03/21 07:46:09;;;;;;;9.27;6.43;;;26.60;70.20;;;;;;5124252;28;20016;-47
2021/03/21 07:48:44;;;;;;;8.10;5.60;;;26.60;70.00;;;;;;5124540;28;20019;-45
2021/03/21 07:51:37;;;;;;;8.82;6.00;;;26.60;69.80;;;;;;5124225;28;20011;-47
2021/03/21 07:54:26;;;;;;;6.75;5.40;;;26.60;69.90;;;;;;5124629;28;20054;-51
2021/03/21 07:57:22;;;;;;;11.50;6.07;;;26.60;69.80;;;;;;5124440;28;20068;-46
2021/03/21 07:59:50;;;;;;;8.88;5.72;;;26.60;69.50;;;;;;5124051;28;20028;-45
2021/03/21 08:02:24;;;;;;;7.40;5.55;;;26.60;69.30;;;;;;5124121;28;20039;-46
2021/03/21 08:04:56;;;;;;;16.55;6.00;;;26.60;68.80;;;;;;5124128;28;20338;-51
2021/03/21 08:07:31;;;;;;;;;;;26.60;69.20;;;;;;5124550;28;20026;-45
2021/03/21 08:09:59;;;;;;;7.50;5.63;;;26.60;68.90;;;;;;5124082;28;20091;-45
2021/03/21 08:12:35;;;;;;;6.97;5.45;;;26.60;69.00;;;;;;5124061;28;20092;-47
2021/03/21 08:15:19;;;;;;;7.07;5.88;;;26.60;69.30;;;;;;5124126;28;20024;-46
2021/03/21 08:18:15;;;;;;;8.00;5.80;;;26.60;69.60;;;;;;5124090;28;20035;-44
2021/03/21 08:20:58;;;;;;;8.00;6.00;;;26.60;69.40;;;;;;5123727;28;20039;-44
2021/03/21 08:23:33;;;;;;;8.68;5.82;;;26.60;70.00;;;;;;5124116;28;20028;-54
2021/03/21 08:26:03;;;;;;;8.55;6.20;;;26.60;70.20;;;;;;5123860;28;20012;-49
2021/03/21 08:28:36;;;;;;;6.50;5.70;;;26.60;70.80;;;;;;5124426;28;20030;-49
2021/03/21 08:31:10;;;;;;;7.72;5.88;;;26.50;70.00;;;;;;5123854;28;20031;-48
2021/03/21 08:33:38;;;;;;;7.00;5.90;;;26.50;69.50;;;;;;5124521;28;20073;-51
2021/03/21 08:36:09;;;;;;;9.27;5.72;;;26.50;69.80;;;;;;5127698;28;20019;-54
2021/03/21 08:38:37;;;;;;;9.47;5.63;;;26.50;70.30;;;;;;5127897;28;20027;-52
2021/03/21 08:41:05;;;;;;;7.72;5.75;;;26.50;70.10;;;;;;5127553;28;20038;-59
2021/03/21 08:43:35;;;;;;;8.48;5.72;;;26.50;69.80;;;;;;5127935;28;20019;-47
2021/03/21 08:46:10;;;;;;;6.97;5.78;;;26.60;70.00;;;;;;5127671;28;20011;-50
2021/03/21 08:48:38;;;;;;;9.25;5.65;;;26.50;70.00;;;;;;5127630;28;20094;-51
2021/03/21 08:51:04;;;;;;;11.30;5.50;;;26.50;69.80;;;;;;5127403;28;20035;-50
2021/03/21 08:53:38;;;;;;;7.47;5.70;;;26.50;69.70;;;;;;5127883;28;20072;-47
2021/03/21 08:56:14;;;;;;;9.52;5.43;;;26.50;69.80;;;;;;5127315;28;20038;-46
2021/03/21 08:58:41;;;;;;;10.35;6.22;;;26.50;70.10;;;;;;5127405;28;20027;-50
2021/03/21 09:01:25;;;;;;;8.32;5.68;;;26.50;70.00;;;;;;5127116;28;20055;-49
2021/03/21 09:04:08;;;;;;;8.90;5.82;;;26.50;70.20;;;;;;5127464;28;20012;-51
2021/03/21 09:06:36;;;;;;;;;;;26.50;69.90;;;;;;5127680;28;20024;-53
2021/03/21 09:09:34;;;;;;;7.40;5.70;;;26.50;70.30;;;;;;5127406;28;19903;-49
2021/03/21 09:12:19;;;;;;;7.57;5.70;;;26.40;70.00;;;;;;5127041;28;20216;-50
2021/03/21 09:14:45;;;;;;;9.18;5.55;;;26.50;70.20;;;;;;5127209;28;20047;-51
2021/03/21 09:17:26;;;;;;;7.30;5.38;;;26.50;69.60;;;;;;5126818;28;20023;-48
2021/03/21 09:19:59;;;;;;;8.40;5.43;;;26.50;69.50;;;;;;5126705;28;20044;-49
2021/03/21 09:22:34;;;;;;;8.10;5.05;;;26.50;68.90;;;;;;5126925;28;20079;-46
2021/03/21 09:25:11;;;;;;;8.15;5.70;;;26.50;69.00;;;;;;5126633;28;20026;-47
2021/03/21 09:27:41;;;;;;;11.85;5.57;;;26.50;68.60;;;;;;5126787;28;20070;-48
2021/03/21 09:30:37;;;;;;;10.02;5.68;;;26.50;68.60;;;;;;5126652;28;20019;-46
2021/03/21 09:33:12;;;;;;;7.68;5.40;;;26.50;68.60;;;;;;5126784;28;20034;-54
2021/03/21 09:36:03;;;;;;;7.03;5.22;;;26.50;68.40;;;;;;5126563;28;20023;-48
2021/03/21 09:38:33;;;;;;;5.95;5.35;;;26.50;68.50;;;;;;5112312;28;20061;-49
2021/03/21 09:41:11;;;;;;;7.75;5.50;;;26.50;68.80;;;;;;5126618;28;20208;-48
2021/03/21 09:43:40;;;;;;;7.35;5.38;;;26.50;68.50;;;;;;5126666;28;20053;-46
2021/03/21 09:46:21;;;;;;;9.02;5.47;;;26.50;68.50;;;;;;5126078;28;20023;-45
2021/03/21 09:48:56;;;;;;;8.60;5.97;;;26.50;68.60;;;;;;5126603;28;20023;-46
2021/03/21 09:51:44;;;;;;;9.13;5.40;;;26.50;68.50;;;;;;5126524;28;20022;-46
2021/03/21 09:54:16;;;;;;;9.05;5.88;;;26.50;68.80;;;;;;5126540;28;20051;-46
2021/03/21 09:57:28;;;;;;;8.82;5.90;;;26.50;69.60;;;;;;5126389;28;20043;-47
2021/03/21 10:00:14;;;;;;;26.30;6.00;;;26.50;69.30;;;;;;5087391;28;20355;-56
2021/03/21 10:02:49;;;;;;;11.10;6.15;;;26.40;69.50;;;;;;5125954;28;20066;-46
2021/03/21 10:05:34;;;;;;;8.60;5.75;;;26.40;69.40;;;;;;5126008;28;20019;-46
2021/03/21 10:08:26;;;;;;;8.02;6.10;;;26.40;69.80;;;;;;5125997;28;20328;-54
2021/03/21 10:11:00;;;;;;;9.02;5.93;;;26.40;69.80;;;;;;5079011;28;20324;-46
2021/03/21 10:13:37;;;;;;;8.48;5.82;;;26.50;69.90;;;;;;5125903;28;20098;-45
2021/03/21 10:16:13;;;;;;;9.77;5.70;;;26.40;69.80;;;;;;5125843;28;20023;-45
2021/03/21 10:18:58;;;;;;;8.40;5.35;;;26.50;69.70;;;;;;5125698;28;20287;-48
2021/03/21 10:21:25;;;;;;;11.57;5.95;;;26.40;69.50;;;;;;5125706;28;20026;-43
2021/03/21 10:23:56;;;;;;;8.90;5.60;;;26.50;69.60;;;;;;5125875;28;20073;-44
2021/03/21 10:26:26;;;;;;;6.78;5.82;;;26.50;69.60;;;;;;5125543;28;20020;-45
2021/03/21 10:29:13;;;;;;;11.00;6.03;;;26.50;69.70;;;;;;5125766;28;20024;-45
2021/03/21 10:31:40;;;;;;;7.35;5.72;;;26.50;69.80;;;;;;5124292;28;20020;-44
2021/03/21 10:34:07;;;;;;;11.18;5.72;;;26.50;69.60;;;;;;5125772;28;20042;-45
2021/03/21 10:36:43;;;;;;;8.38;5.93;;;26.40;69.50;;;;;;5125325;28;20076;-46
2021/03/21 10:39:09;;;;;;;8.63;6.40;;;26.50;69.60;;;;;;5125516;28;20070;-46
2021/03/21 10:42:00;;;;;;;7.93;6.35;;;26.40;69.20;;;;;;5125299;28;20342;-50
2021/03/21 10:44:33;;;;;;;8.48;6.13;;;26.50;69.10;;;;;;5125598;28;20094;-49
2021/03/21 10:47:09;;;;;;;8.32;6.50;;;26.50;69.00;;;;;;5125013;28;20047;-49
2021/03/21 10:49:49;;;;;;;8.02;5.70;;;26.40;68.80;;;;;;5125510;28;20027;-49
2021/03/21 10:52:31;;;;;;;8.52;6.05;;;26.40;68.60;;;;;;5124904;28;20020;-48
2021/03/21 10:55:13;;;;;;;;;;;26.50;68.90;;;;;;5125676;28;20031;-44
2021/03/21 10:57:45;;;;;;;9.18;5.65;;;26.50;68.70;;;;;;5124072;28;19899;-49
2021/03/21 11:00:24;;;;;;;7.63;5.78;;;26.50;68.70;;;;;;5124807;28;20334;-49
2021/03/21 11:03:00;;;;;;;9.88;5.82;;;26.40;68.60;;;;;;5124776;28;20064;-44
2021/03/21 11:05:30;;;;;;;12.75;6.07;;;26.50;68.90;;;;;;5124810;28;20087;-46
2021/03/21 11:08:09;;;;;;;15.75;6.63;;;26.40;68.70;;;;;;5124801;28;20023;-47
2021/03/21 11:10:58;;;;;;;12.95;6.13;;;26.50;68.60;;;;;;5125021;28;20308;-52
2021/03/21 11:13:35;;;;;;;14.02;5.95;;;26.40;69.90;;;;;;5124222;28;20243;-51
2021/03/21 11:16:18;;;;;;;13.60;7.05;;;26.40;69.20;;;;;;5124738;28;20026;-45
2021/03/21 11:18:50;;;;;;;11.93;6.22;;;26.50;69.00;;;;;;5124779;28;20031;-44
2021/03/21 11:21:17;;;;;;;;;;;26.50;68.80;;;;;;5124991;28;20023;-45
2021/03/21 11:23:55;;;;;;;13.50;6.45;;;26.50;68.80;;;;;;5124708;28;19974;-50
2021/03/21 11:26:25;;;;;;;8.10;6.18;;;26.50;69.00;;;;;;5124550;28;20019;-45
2021/03/21 11:29:25;;;;;;;13.30;6.60;;;26.50;69.40;;;;;;5124982;28;20030;-43
2021/03/21 11:31:59;;;;;;;9.55;5.93;;;26.50;69.70;;;;;;5124399;28;20189;-47
2021/03/21 11:34:35;;;;;;;12.52;6.53;;;26.50;70.70;;;;;;5124616;28;20032;-45
2021/03/21 11:37:19;;;;;;;10.75;6.00;;;26.40;71.10;;;;;;5124292;28;20334;-47
2021/03/21 11:39:58;;;;;;;11.18;5.95;;;26.40;71.20;;;;;;5124525;28;20090;-48
2021/03/21 11:42:30;;;;;;;9.98;6.00;;;26.40;71.60;;;;;;5124222;28;20016;-50
2021/03/21 11:45:12;;;;;;;;;;;26.50;71.60;;;;;;5124654;28;20012;-48
2021/03/21 11:47:47;;;;;;;12.93;5.88;;;26.50;71.90;;;;;;5124421;28;20211;-46
2021/03/21 11:50:41;;;;;;;11.93;6.80;;;26.50;71.80;;;;;;5124163;28;20129;-52
2021/03/21 11:53:16;;;;;;;11.50;6.57;;;26.50;71.90;;;;;;5121161;28;20065;-49
2021/03/21 11:55:47;;;;;;;10.93;6.32;;;26.50;72.30;;;;;;5124249;28;20064;-45
2021/03/21 11:58:36;;;;;;;11.23;6.10;;;26.70;72.20;;;;;;5124251;28;20042;-51
2021/03/21 12:01:09;;;;;;;11.75;6.10;;;26.90;72.00;;;;;;5124264;28;20025;-49
2021/03/21 12:03:52;;;;;;;8.93;6.70;;;26.90;71.40;;;;;;5124481;28;20023;-52
2021/03/21 12:06:34;;;;;;;9.65;6.40;;;26.80;71.50;;;;;;5124206;28;20276;-54
2021/03/21 12:09:27;;;;;;;16.60;6.80;;;26.80;71.90;;;;;;5125561;28;20024;-47
2021/03/21 12:11:53;;;;;;;;;;;26.80;72.20;;;;;;5081761;28;20268;-47
2021/03/21 12:14:31;;;;;;;11.77;6.43;;;26.80;72.20;;;;;;5128323;28;19907;-50
2021/03/21 12:17:24;;;;;;;7.30;6.22;;;26.80;72.50;;;;;;5128195;28;20060;-52
2021/03/21 12:19:56;;;;;;;10.38;6.97;;;26.80;72.50;;;;;;5114981;28;20039;-53
2021/03/21 12:22:41;;;;;;;9.27;6.65;;;26.80;72.90;;;;;;5128019;28;20023;-53
2021/03/21 12:25:23;;;;;;;13.43;6.18;;;26.80;73.20;;;;;;5127989;28;20019;-48
2021/03/21 12:28:00;;;;;;;8.63;7.20;;;26.80;73.30;;;;;;5128098;28;20034;-48
2021/03/21 12:30:46;;;;;;;14.60;7.85;;;26.80;73.90;;;;;;5127928;28;20245;-48
2021/03/21 12:33:21;;;;;;;12.57;7.93;;;26.80;73.70;;;;;;5127887;28;20031;-53
2021/03/21 12:35:47;;;;;;;15.00;8.13;;;26.70;74.20;;;;;;5127716;28;20059;-46
2021/03/21 12:38:31;;;;;;;11.93;7.50;;;26.70;74.50;;;;;;5127930;28;20031;-46
2021/03/21 12:40:58;;;;;;;16.65;8.40;;;26.70;74.00;;;;;;5127517;28;20020;-46
2021/03/21 12:43:28;;;;;;;11.38;7.78;;;26.70;74.00;;;;;;5127866;28;20030;-46
2021/03/21 12:46:11;;;;;;;15.52;7.43;;;26.70;74.20;;;;;;5127441;28;20016;-48
2021/03/21 12:48:53;;;;;;;8.77;7.47;;;26.70;74.20;;;;;;5127763;28;20026;-47
2021/03/21 12:51:32;;;;;;;11.52;7.43;;;26.70;74.20;;;;;;5127437;28;20058;-47
2021/03/21 12:54:00;;;;;;;10.73;7.20;;;26.70;74.40;;;;;;5127588;28;20031;-49
2021/03/21 12:56:26;;;;;;;10.68;7.78;;;26.70;74.10;;;;;;5127169;28;20019;-47
2021/03/21 12:58:53;;;;;;;10.88;7.43;;;26.70;74.60;;;;;;5127407;28;20038;-47
2021/03/21 13:01:48;;;;;;;9.20;7.47;;;26.70;74.70;;;;;;5127140;28;20031;-48
2021/03/21 13:04:15;;;;;;;12.13;8.52;;;26.70;74.70;;;;;;5127568;28;20020;-52
2021/03/21 13:06:41;;;;;;;16.17;8.75;;;26.60;74.70;;;;;;5127262;28;20334;-48
2021/03/21 13:09:08;;;;;;;14.23;8.23;;;26.60;74.90;;;;;;5127116;28;20185;-46
2021/03/21 13:11:37;;;;;;;10.93;8.00;;;26.60;74.70;;;;;;5127085;28;20015;-48
2021/03/21 13:14:05;;;;;;;18.17;11.63;;;26.60;74.90;;;;;;5127203;28;20059;-45
2021/03/21 13:16:32;;;;;;;19.67;17.63;;;26.60;75.00;;;;;;5126733;28;20043;-51
2021/03/21 13:18:59;;;;;;;12.82;10.18;;;26.70;75.40;;;;;;5126638;28;20085;-46
2021/03/21 13:21:25;;;;;;;18.17;10.18;;;26.70;75.40;;;;;;5125740;28;20031;-43
2021/03/21 13:23:52;;;;;;;17.08;10.10;;;26.70;75.60;;;;;;5126846;28;20027;-48
2021/03/21 13:26:19;;;;;;;19.00;9.82;;;26.70;75.20;;;;;;5126663;28;20015;-52
2021/03/21 13:28:45;;;;;;;16.75;10.30;;;26.70;75.20;;;;;;5126982;28;20020;-51
2021/03/21 13:31:12;;;;;;;15.63;10.23;;;26.70;75.10;;;;;;5126389;28;20043;-53
2021/03/21 13:33:39;;;;;;;20.35;11.30;;;26.70;75.70;;;;;;5126692;28;20028;-50
2021/03/21 13:36:07;;;;;;;17.17;10.75;;;26.70;76.10;;;;;;5126511;28;20016;-52
2021/03/21 13:38:35;;;;;;;16.55;10.55;;;26.70;76.30;;;;;;5126469;28;20294;-46
2021/03/21 13:41:03;;;;;;;12.75;10.55;;;26.70;76.30;;;;;;5126309;28;20215;-46
2021/03/21 13:43:31;;;;;;;16.45;9.90;;;26.70;76.10;;;;;;5126652;28;20064;-52